sensor_id;sensor_type;location;lat;lon;timestamp;P1;durP1;ratioP1;P2;durP2;ratioP2
22382;SDS011;11359;45.802;13.530;2023-03-23T00:01:24;0.70;;;0.60;;
22382;SDS011;11359;45.802;13.530;2023-03-23T00:03:54;1.30;;;0.93;;
22382;SDS011;11359;45.802;13.530;2023-03-23T00:06:25;0.95;;;0.77;;
22382;SDS011;11359;45.802;13.530;2023-03-23T00:08:52;0.70;;;0.70;;
22382;SDS011;11359;45.802;13.530;2023-03-23T00:11:24;0.70;;;0.70;;
22382;SDS011;11359;45.802;13.530;2023-03-23T00:13:55;0.90;;;0.60;;
22382;SDS011;11359;45.802;13.530;2023-03-23T00:16:23;0.70;;;0.70;;
22382;SDS011;11359;45.802;13.530;2023-03-23T00:19:10;0.70;;;0.70;;
22382;SDS011;11359;45.802;13.530;2023-03-23T00:21:40;0.75;;;0.70;;
22382;SDS011;11359;45.802;13.530;2023-03-23T00:26:35;1.00;;;0.80;;
22382;SDS011;11359;45.802;13.530;2023-03-23T00:29:06;0.63;;;0.60;;
22382;SDS011;11359;45.802;13.530;2023-03-23T00:31:33;0.93;;;0.70;;
22382;SDS011;11359;45.802;13.530;2023-03-23T00:34:00;0.88;;;0.70;;
22382;SDS011;11359;45.802;13.530;2023-03-23T00:36:29;0.93;;;0.70;;
22382;SDS011;11359;45.802;13.530;2023-03-23T00:38:56;0.77;;;0.70;;
22382;SDS011;11359;45.802;13.530;2023-03-23T00:41:24;0.93;;;0.70;;
22382;SDS011;11359;45.802;13.530;2023-03-23T00:43:52;0.77;;;0.73;;
22382;SDS011;11359;45.802;13.530;2023-03-23T00:46:18;0.70;;;0.60;;
22382;SDS011;11359;45.802;13.530;2023-03-23T00:48:45;0.60;;;0.60;;
22382;SDS011;11359;45.802;13.530;2023-03-23T00:51:12;0.60;;;0.60;;
22382;SDS011;11359;45.802;13.530;2023-03-23T00:53:38;0.73;;;0.60;;
22382;SDS011;11359;45.802;13.530;2023-03-23T00:56:05;0.98;;;0.70;;
22382;SDS011;11359;45.802;13.530;2023-03-23T00:58:33;0.80;;;0.70;;
22382;SDS011;11359;45.802;13.530;2023-03-23T01:00:58;0.73;;;0.73;;
22382;SDS011;11359;45.802;13.530;2023-03-23T01:03:24;0.63;;;0.55;;
22382;SDS011;11359;45.802;13.530;2023-03-23T01:05:54;0.80;;;0.60;;
22382;SDS011;11359;45.802;13.530;2023-03-23T01:08:20;0.60;;;0.60;;
22382;SDS011;11359;45.802;13.530;2023-03-23T01:10:46;0.80;;;0.60;;
22382;SDS011;11359;45.802;13.530;2023-03-23T01:13:13;0.70;;;0.60;;
22382;SDS011;11359;45.802;13.530;2023-03-23T01:15:40;0.70;;;0.60;;
22382;SDS011;11359;45.802;13.530;2023-03-23T01:18:07;0.50;;;0.50;;
22382;SDS011;11359;45.802;13.530;2023-03-23T01:20:34;0.60;;;0.60;;
22382;SDS011;11359;45.802;13.530;2023-03-23T01:23:00;0.50;;;0.50;;
22382;SDS011;11359;45.802;13.530;2023-03-23T01:25:27;0.82;;;0.60;;
22382;SDS011;11359;45.802;13.530;2023-03-23T01:27:57;0.60;;;0.60;;
22382;SDS011;11359;45.802;13.530;2023-03-23T01:30:24;0.63;;;0.50;;
22382;SDS011;11359;45.802;13.530;2023-03-23T01:32:50;0.60;;;0.60;;
22382;SDS011;11359;45.802;13.530;2023-03-23T01:35:16;0.60;;;0.60;;
22382;SDS011;11359;45.802;13.530;2023-03-23T01:37:43;0.63;;;0.60;;
22382;SDS011;11359;45.802;13.530;2023-03-23T01:40:09;0.63;;;0.52;;
22382;SDS011;11359;45.802;13.530;2023-03-23T01:42:37;1.35;;;0.70;;
22382;SDS011;11359;45.802;13.530;2023-03-23T01:47:57;1.17;;;0.80;;
22382;SDS011;11359;45.802;13.530;2023-03-23T01:50:27;0.70;;;0.60;;
22382;SDS011;11359;45.802;13.530;2023-03-23T01:52:55;0.82;;;0.60;;
22382;SDS011;11359;45.802;13.530;2023-03-23T01:55:23;0.50;;;0.50;;
22382;SDS011;11359;45.802;13.530;2023-03-23T01:57:50;0.60;;;0.60;;
22382;SDS011;11359;45.802;13.530;2023-03-23T02:00:16;0.50;;;0.50;;
22382;SDS011;11359;45.802;13.530;2023-03-23T02:02:42;0.50;;;0.50;;
22382;SDS011;11359;45.802;13.530;2023-03-23T02:05:14;0.60;;;0.60;;
22382;SDS011;11359;45.802;13.530;2023-03-23T02:07:45;0.50;;;0.50;;
22382;SDS011;11359;45.802;13.530;2023-03-23T02:10:14;0.80;;;0.50;;
22382;SDS011;11359;45.802;13.530;2023-03-23T02:12:41;0.50;;;0.50;;
22382;SDS011;11359;45.802;13.530;2023-03-23T02:15:09;0.52;;;0.50;;
22382;SDS011;11359;45.802;13.530;2023-03-23T02:20:23;0.60;;;0.60;;
22382;SDS011;11359;45.802;13.530;2023-03-23T02:34:49;0.50;;;0.50;;
22382;SDS011;11359;45.802;13.530;2023-03-23T02:39:57;0.60;;;0.50;;
22382;SDS011;11359;45.802;13.530;2023-03-23T02:42:41;0.50;;;0.50;;
22382;SDS011;11359;45.802;13.530;2023-03-23T02:45:10;0.47;;;0.47;;
22382;SDS011;11359;45.802;13.530;2023-03-23T02:47:38;0.60;;;0.57;;
22382;SDS011;11359;45.802;13.530;2023-03-23T02:50:06;0.50;;;0.50;;
22382;SDS011;11359;45.802;13.530;2023-03-23T02:52:35;0.40;;;0.40;;
22382;SDS011;11359;45.802;13.530;2023-03-23T02:55:02;0.52;;;0.50;;
22382;SDS011;11359;45.802;13.530;2023-03-23T02:57:29;0.50;;;0.50;;
22382;SDS011;11359;45.802;13.530;2023-03-23T02:59:56;0.55;;;0.47;;
22382;SDS011;11359;45.802;13.530;2023-03-23T03:10:37;0.63;;;0.60;;
22382;SDS011;11359;45.802;13.530;2023-03-23T03:16:13;0.50;;;0.50;;
22382;SDS011;11359;45.802;13.530;2023-03-23T03:18:43;0.52;;;0.50;;
22382;SDS011;11359;45.802;13.530;2023-03-23T03:21:17;0.50;;;0.50;;
22382;SDS011;11359;45.802;13.530;2023-03-23T03:23:50;0.80;;;0.65;;
22382;SDS011;11359;45.802;13.530;2023-03-23T03:26:18;0.50;;;0.50;;
22382;SDS011;11359;45.802;13.530;2023-03-23T03:28:47;0.50;;;0.50;;
22382;SDS011;11359;45.802;13.530;2023-03-23T03:31:14;0.50;;;0.50;;
22382;SDS011;11359;45.802;13.530;2023-03-23T03:33:45;0.43;;;0.40;;
22382;SDS011;11359;45.802;13.530;2023-03-23T03:36:15;0.68;;;0.60;;
22382;SDS011;11359;45.802;13.530;2023-03-23T03:38:45;0.57;;;0.50;;
22382;SDS011;11359;45.802;13.530;2023-03-23T03:41:14;0.95;;;0.70;;
22382;SDS011;11359;45.802;13.530;2023-03-23T03:43:40;0.75;;;0.60;;
22382;SDS011;11359;45.802;13.530;2023-03-23T03:46:05;0.68;;;0.50;;
22382;SDS011;11359;45.802;13.530;2023-03-23T03:48:32;0.50;;;0.50;;
22382;SDS011;11359;45.802;13.530;2023-03-23T03:50:57;0.63;;;0.50;;
22382;SDS011;11359;45.802;13.530;2023-03-23T03:53:25;0.60;;;0.60;;
22382;SDS011;11359;45.802;13.530;2023-03-23T03:55:51;0.50;;;0.50;;
22382;SDS011;11359;45.802;13.530;2023-03-23T03:58:20;0.70;;;0.68;;
22382;SDS011;11359;45.802;13.530;2023-03-23T04:00:47;0.40;;;0.40;;
22382;SDS011;11359;45.802;13.530;2023-03-23T04:03:13;0.55;;;0.50;;
22382;SDS011;11359;45.802;13.530;2023-03-23T04:05:40;0.60;;;0.60;;
22382;SDS011;11359;45.802;13.530;2023-03-23T04:08:06;0.50;;;0.50;;
22382;SDS011;11359;45.802;13.530;2023-03-23T04:10:32;0.75;;;0.60;;
22382;SDS011;11359;45.802;13.530;2023-03-23T04:12:58;0.60;;;0.50;;
22382;SDS011;11359;45.802;13.530;2023-03-23T04:15:24;0.80;;;0.70;;
22382;SDS011;11359;45.802;13.530;2023-03-23T04:17:50;1.02;;;0.60;;
22382;SDS011;11359;45.802;13.530;2023-03-23T04:20:19;0.60;;;0.50;;
22382;SDS011;11359;45.802;13.530;2023-03-23T04:22:44;0.57;;;0.55;;
22382;SDS011;11359;45.802;13.530;2023-03-23T04:25:15;0.85;;;0.65;;
22382;SDS011;11359;45.802;13.530;2023-03-23T04:27:42;0.75;;;0.52;;
22382;SDS011;11359;45.802;13.530;2023-03-23T04:30:11;0.68;;;0.68;;
22382;SDS011;11359;45.802;13.530;2023-03-23T04:32:39;0.50;;;0.50;;
22382;SDS011;11359;45.802;13.530;2023-03-23T04:35:09;0.60;;;0.60;;
22382;SDS011;11359;45.802;13.530;2023-03-23T04:37:36;0.60;;;0.60;;
22382;SDS011;11359;45.802;13.530;2023-03-23T04:40:03;0.57;;;0.57;;
22382;SDS011;11359;45.802;13.530;2023-03-23T04:42:36;0.70;;;0.68;;
22382;SDS011;11359;45.802;13.530;2023-03-23T04:45:03;0.57;;;0.57;;
22382;SDS011;11359;45.802;13.530;2023-03-23T04:47:34;0.40;;;0.40;;
22382;SDS011;11359;45.802;13.530;2023-03-23T04:50:08;0.50;;;0.50;;
22382;SDS011;11359;45.802;13.530;2023-03-23T04:52:37;0.50;;;0.50;;
22382;SDS011;11359;45.802;13.530;2023-03-23T04:55:06;0.70;;;0.60;;
22382;SDS011;11359;45.802;13.530;2023-03-23T04:57:32;0.57;;;0.50;;
22382;SDS011;11359;45.802;13.530;2023-03-23T04:59:59;0.52;;;0.52;;
22382;SDS011;11359;45.802;13.530;2023-03-23T05:02:26;0.50;;;0.50;;
22382;SDS011;11359;45.802;13.530;2023-03-23T05:04:55;0.65;;;0.65;;
22382;SDS011;11359;45.802;13.530;2023-03-23T05:07:22;0.50;;;0.50;;
22382;SDS011;11359;45.802;13.530;2023-03-23T05:09:48;0.70;;;0.60;;
22382;SDS011;11359;45.802;13.530;2023-03-23T05:12:14;0.50;;;0.50;;
22382;SDS011;11359;45.802;13.530;2023-03-23T05:14:41;0.80;;;0.70;;
22382;SDS011;11359;45.802;13.530;2023-03-23T05:17:07;0.68;;;0.68;;
22382;SDS011;11359;45.802;13.530;2023-03-23T05:19:34;0.50;;;0.50;;
22382;SDS011;11359;45.802;13.530;2023-03-23T05:22:01;0.60;;;0.55;;
22382;SDS011;11359;45.802;13.530;2023-03-23T05:24:30;0.57;;;0.50;;
22382;SDS011;11359;45.802;13.530;2023-03-23T05:26:58;0.50;;;0.50;;
22382;SDS011;11359;45.802;13.530;2023-03-23T05:29:24;0.70;;;0.60;;
22382;SDS011;11359;45.802;13.530;2023-03-23T05:31:51;0.50;;;0.50;;
22382;SDS011;11359;45.802;13.530;2023-03-23T05:34:18;0.60;;;0.60;;
22382;SDS011;11359;45.802;13.530;2023-03-23T05:36:44;0.55;;;0.50;;
22382;SDS011;11359;45.802;13.530;2023-03-23T05:39:11;0.70;;;0.70;;
22382;SDS011;11359;45.802;13.530;2023-03-23T05:41:38;0.77;;;0.60;;
22382;SDS011;11359;45.802;13.530;2023-03-23T05:44:04;0.50;;;0.50;;
22382;SDS011;11359;45.802;13.530;2023-03-23T05:46:30;0.60;;;0.60;;
22382;SDS011;11359;45.802;13.530;2023-03-23T05:48:57;0.50;;;0.50;;
22382;SDS011;11359;45.802;13.530;2023-03-23T05:51:23;0.50;;;0.50;;
22382;SDS011;11359;45.802;13.530;2023-03-23T05:53:49;0.60;;;0.60;;
22382;SDS011;11359;45.802;13.530;2023-03-23T05:56:15;0.70;;;0.60;;
22382;SDS011;11359;45.802;13.530;2023-03-23T05:58:40;0.50;;;0.50;;
22382;SDS011;11359;45.802;13.530;2023-03-23T06:01:07;0.45;;;0.43;;
22382;SDS011;11359;45.802;13.530;2023-03-23T06:03:33;0.50;;;0.50;;
22382;SDS011;11359;45.802;13.530;2023-03-23T06:06:01;0.60;;;0.60;;
22382;SDS011;11359;45.802;13.530;2023-03-23T06:08:28;0.90;;;0.70;;
22382;SDS011;11359;45.802;13.530;2023-03-23T06:10:55;0.50;;;0.50;;
22382;SDS011;11359;45.802;13.530;2023-03-23T06:13:21;0.50;;;0.50;;
22382;SDS011;11359;45.802;13.530;2023-03-23T06:15:48;0.50;;;0.50;;
22382;SDS011;11359;45.802;13.530;2023-03-23T06:18:14;0.50;;;0.50;;
22382;SDS011;11359;45.802;13.530;2023-03-23T06:20:41;0.93;;;0.60;;
22382;SDS011;11359;45.802;13.530;2023-03-23T06:23:09;0.80;;;0.80;;
22382;SDS011;11359;45.802;13.530;2023-03-23T06:25:35;1.00;;;0.90;;
22382;SDS011;11359;45.802;13.530;2023-03-23T06:28:01;1.10;;;0.93;;
22382;SDS011;11359;45.802;13.530;2023-03-23T06:30:28;1.00;;;0.90;;
22382;SDS011;11359;45.802;13.530;2023-03-23T06:32:54;0.80;;;0.80;;
22382;SDS011;11359;45.802;13.530;2023-03-23T06:35:21;1.88;;;0.70;;
22382;SDS011;11359;45.802;13.530;2023-03-23T06:37:47;0.70;;;0.70;;
22382;SDS011;11359;45.802;13.530;2023-03-23T06:40:13;0.60;;;0.60;;
22382;SDS011;11359;45.802;13.530;2023-03-23T06:42:39;0.80;;;0.60;;
22382;SDS011;11359;45.802;13.530;2023-03-23T06:45:05;0.80;;;0.68;;
22382;SDS011;11359;45.802;13.530;2023-03-23T06:47:32;0.82;;;0.80;;
22382;SDS011;11359;45.802;13.530;2023-03-23T06:49:58;0.80;;;0.80;;
22382;SDS011;11359;45.802;13.530;2023-03-23T06:52:25;0.75;;;0.60;;
22382;SDS011;11359;45.802;13.530;2023-03-23T06:54:51;0.85;;;0.80;;
22382;SDS011;11359;45.802;13.530;2023-03-23T06:57:17;0.80;;;0.68;;
22382;SDS011;11359;45.802;13.530;2023-03-23T06:59:45;0.60;;;0.60;;
22382;SDS011;11359;45.802;13.530;2023-03-23T07:02:11;0.73;;;0.70;;
22382;SDS011;11359;45.802;13.530;2023-03-23T07:04:39;0.70;;;0.63;;
22382;SDS011;11359;45.802;13.530;2023-03-23T07:07:07;0.50;;;0.50;;
22382;SDS011;11359;45.802;13.530;2023-03-23T07:09:33;0.65;;;0.60;;
22382;SDS011;11359;45.802;13.530;2023-03-23T07:11:59;0.70;;;0.60;;
22382;SDS011;11359;45.802;13.530;2023-03-23T07:14:25;0.70;;;0.70;;
22382;SDS011;11359;45.802;13.530;2023-03-23T07:16:51;0.40;;;0.40;;
22382;SDS011;11359;45.802;13.530;2023-03-23T07:19:19;0.75;;;0.60;;
22382;SDS011;11359;45.802;13.530;2023-03-23T07:21:45;0.50;;;0.50;;
22382;SDS011;11359;45.802;13.530;2023-03-23T07:24:12;0.77;;;0.50;;
22382;SDS011;11359;45.802;13.530;2023-03-23T07:26:41;0.70;;;0.55;;
22382;SDS011;11359;45.802;13.530;2023-03-23T07:29:10;0.50;;;0.50;;
22382;SDS011;11359;45.802;13.530;2023-03-23T07:31:36;0.50;;;0.50;;
22382;SDS011;11359;45.802;13.530;2023-03-23T07:34:02;0.90;;;0.47;;
22382;SDS011;11359;45.802;13.530;2023-03-23T07:36:28;0.52;;;0.50;;
22382;SDS011;11359;45.802;13.530;2023-03-23T07:38:55;0.65;;;0.57;;
22382;SDS011;11359;45.802;13.530;2023-03-23T07:41:21;0.50;;;0.50;;
22382;SDS011;11359;45.802;13.530;2023-03-23T07:43:47;0.50;;;0.50;;
22382;SDS011;11359;45.802;13.530;2023-03-23T07:46:13;0.60;;;0.60;;
22382;SDS011;11359;45.802;13.530;2023-03-23T07:48:39;0.63;;;0.60;;
22382;SDS011;11359;45.802;13.530;2023-03-23T07:51:06;0.40;;;0.40;;
22382;SDS011;11359;45.802;13.530;2023-03-23T07:53:33;0.73;;;0.50;;
22382;SDS011;11359;45.802;13.530;2023-03-23T07:55:59;0.40;;;0.40;;
22382;SDS011;11359;45.802;13.530;2023-03-23T07:58:26;0.40;;;0.40;;
22382;SDS011;11359;45.802;13.530;2023-03-23T08:00:53;0.50;;;0.47;;
22382;SDS011;11359;45.802;13.530;2023-03-23T08:03:21;0.75;;;0.70;;
22382;SDS011;11359;45.802;13.530;2023-03-23T08:05:48;1.05;;;0.63;;
22382;SDS011;11359;45.802;13.530;2023-03-23T08:08:15;0.75;;;0.70;;
22382;SDS011;11359;45.802;13.530;2023-03-23T08:10:40;1.83;;;1.00;;
22382;SDS011;11359;45.802;13.530;2023-03-23T08:13:06;1.45;;;1.35;;
22382;SDS011;11359;45.802;13.530;2023-03-23T08:15:33;1.00;;;0.90;;
22382;SDS011;11359;45.802;13.530;2023-03-23T08:18:02;1.20;;;0.98;;
22382;SDS011;11359;45.802;13.530;2023-03-23T08:20:28;1.40;;;1.00;;
22382;SDS011;11359;45.802;13.530;2023-03-23T08:22:55;0.60;;;0.60;;
22382;SDS011;11359;45.802;13.530;2023-03-23T08:25:22;0.90;;;0.70;;
22382;SDS011;11359;45.802;13.530;2023-03-23T08:27:51;0.70;;;0.63;;
22382;SDS011;11359;45.802;13.530;2023-03-23T08:30:18;0.63;;;0.63;;
22382;SDS011;11359;45.802;13.530;2023-03-23T08:32:45;0.75;;;0.55;;
22382;SDS011;11359;45.802;13.530;2023-03-23T08:35:12;0.60;;;0.60;;
22382;SDS011;11359;45.802;13.530;2023-03-23T08:37:40;0.50;;;0.50;;
22382;SDS011;11359;45.802;13.530;2023-03-23T08:40:06;0.50;;;0.50;;
22382;SDS011;11359;45.802;13.530;2023-03-23T08:42:37;1.17;;;0.80;;
22382;SDS011;11359;45.802;13.530;2023-03-23T08:45:04;1.02;;;0.82;;
22382;SDS011;11359;45.802;13.530;2023-03-23T08:47:32;1.17;;;0.85;;
22382;SDS011;11359;45.802;13.530;2023-03-23T08:50:00;1.52;;;1.10;;
22382;SDS011;11359;45.802;13.530;2023-03-23T08:52:27;1.10;;;1.00;;
22382;SDS011;11359;45.802;13.530;2023-03-23T08:54:53;1.67;;;1.00;;
22382;SDS011;11359;45.802;13.530;2023-03-23T08:57:20;1.02;;;0.80;;
22382;SDS011;11359;45.802;13.530;2023-03-23T08:59:46;1.08;;;0.80;;
22382;SDS011;11359;45.802;13.530;2023-03-23T09:02:11;1.45;;;0.98;;
22382;SDS011;11359;45.802;13.530;2023-03-23T09:04:38;1.20;;;1.10;;
22382;SDS011;11359;45.802;13.530;2023-03-23T09:07:07;1.10;;;1.00;;
22382;SDS011;11359;45.802;13.530;2023-03-23T09:09:35;0.82;;;0.75;;
22382;SDS011;11359;45.802;13.530;2023-03-23T09:12:02;0.73;;;0.73;;
22382;SDS011;11359;45.802;13.530;2023-03-23T09:14:29;0.70;;;0.60;;
22382;SDS011;11359;45.802;13.530;2023-03-23T09:16:55;0.82;;;0.50;;
22382;SDS011;11359;45.802;13.530;2023-03-23T09:19:21;0.77;;;0.70;;
22382;SDS011;11359;45.802;13.530;2023-03-23T09:21:47;0.50;;;0.50;;
22382;SDS011;11359;45.802;13.530;2023-03-23T09:24:13;0.68;;;0.60;;
22382;SDS011;11359;45.802;13.530;2023-03-23T09:26:40;0.63;;;0.60;;
22382;SDS011;11359;45.802;13.530;2023-03-23T09:29:09;0.82;;;0.70;;
22382;SDS011;11359;45.802;13.530;2023-03-23T09:31:36;0.98;;;0.88;;
22382;SDS011;11359;45.802;13.530;2023-03-23T09:34:02;0.50;;;0.50;;
22382;SDS011;11359;45.802;13.530;2023-03-23T09:36:28;0.73;;;0.60;;
22382;SDS011;11359;45.802;13.530;2023-03-23T09:38:55;1.63;;;0.70;;
22382;SDS011;11359;45.802;13.530;2023-03-23T09:41:43;1.35;;;0.70;;
22382;SDS011;11359;45.802;13.530;2023-03-23T09:49:50;0.82;;;0.80;;
22382;SDS011;11359;45.802;13.530;2023-03-23T09:54:53;0.93;;;0.80;;
22382;SDS011;11359;45.802;13.530;2023-03-23T10:05:39;0.82;;;0.70;;
22382;SDS011;11359;45.802;13.530;2023-03-23T10:08:11;1.00;;;0.90;;
22382;SDS011;11359;45.802;13.530;2023-03-23T10:13:15;0.80;;;0.80;;
22382;SDS011;11359;45.802;13.530;2023-03-23T10:15:45;0.70;;;0.60;;
22382;SDS011;11359;45.802;13.530;2023-03-23T10:18:15;0.90;;;0.60;;
22382;SDS011;11359;45.802;13.530;2023-03-23T10:20:56;1.48;;;0.70;;
22382;SDS011;11359;45.802;13.530;2023-03-23T10:31:50;0.95;;;0.80;;
22382;SDS011;11359;45.802;13.530;2023-03-23T10:34:28;0.70;;;0.70;;
22382;SDS011;11359;45.802;13.530;2023-03-23T10:42:36;1.05;;;0.68;;
22382;SDS011;11359;45.802;13.530;2023-03-23T10:47:58;0.55;;;0.55;;
22382;SDS011;11359;45.802;13.530;2023-03-23T10:50:34;0.65;;;0.50;;
22382;SDS011;11359;45.802;13.530;2023-03-23T10:53:03;0.40;;;0.40;;
22382;SDS011;11359;45.802;13.530;2023-03-23T10:55:41;0.40;;;0.40;;
22382;SDS011;11359;45.802;13.530;2023-03-23T10:58:10;0.45;;;0.30;;
22382;SDS011;11359;45.802;13.530;2023-03-23T11:00:47;0.40;;;0.40;;
22382;SDS011;11359;45.802;13.530;2023-03-23T11:05:43;0.73;;;0.50;;
22382;SDS011;11359;45.802;13.530;2023-03-23T11:08:13;0.50;;;0.50;;
22382;SDS011;11359;45.802;13.530;2023-03-23T11:10:50;0.38;;;0.38;;
22382;SDS011;11359;45.802;13.530;2023-03-23T11:13:18;0.60;;;0.40;;
22382;SDS011;11359;45.802;13.530;2023-03-23T11:15:46;0.43;;;0.40;;
22382;SDS011;11359;45.802;13.530;2023-03-23T11:18:24;0.45;;;0.40;;
22382;SDS011;11359;45.802;13.530;2023-03-23T11:21:01;0.63;;;0.40;;
22382;SDS011;11359;45.802;13.530;2023-03-23T11:23:32;0.30;;;0.30;;
22382;SDS011;11359;45.802;13.530;2023-03-23T11:28:36;0.30;;;0.30;;
22382;SDS011;11359;45.802;13.530;2023-03-23T11:31:08;0.60;;;0.40;;
22382;SDS011;11359;45.802;13.530;2023-03-23T11:36:06;0.60;;;0.43;;
22382;SDS011;11359;45.802;13.530;2023-03-23T11:38:33;0.30;;;0.30;;
22382;SDS011;11359;45.802;13.530;2023-03-23T11:41:00;0.35;;;0.30;;
22382;SDS011;11359;45.802;13.530;2023-03-23T11:43:26;0.30;;;0.30;;
22382;SDS011;11359;45.802;13.530;2023-03-23T11:46:14;0.40;;;0.40;;
22382;SDS011;11359;45.802;13.530;2023-03-23T11:48:58;0.30;;;0.30;;
22382;SDS011;11359;45.802;13.530;2023-03-23T11:51:51;0.52;;;0.40;;
22382;SDS011;11359;45.802;13.530;2023-03-23T11:56:49;0.40;;;0.40;;
22382;SDS011;11359;45.802;13.530;2023-03-23T11:59:26;0.40;;;0.40;;
22382;SDS011;11359;45.802;13.530;2023-03-23T12:15:53;0.57;;;0.50;;
22382;SDS011;11359;45.802;13.530;2023-03-23T12:33:07;1.75;;;1.10;;
22382;SDS011;11359;45.802;13.530;2023-03-23T12:36:11;2.63;;;1.33;;
22382;SDS011;11359;45.802;13.530;2023-03-23T12:44:43;0.88;;;0.70;;
22382;SDS011;11359;45.802;13.530;2023-03-23T12:47:16;0.70;;;0.60;;
22382;SDS011;11359;45.802;13.530;2023-03-23T12:52:57;0.63;;;0.63;;
22382;SDS011;11359;45.802;13.530;2023-03-23T12:55:52;0.63;;;0.52;;
22382;SDS011;11359;45.802;13.530;2023-03-23T12:58:34;1.00;;;0.60;;
22382;SDS011;11359;45.802;13.530;2023-03-23T13:01:10;0.50;;;0.50;;
22382;SDS011;11359;45.802;13.530;2023-03-23T13:03:48;0.40;;;0.40;;
22382;SDS011;11359;45.802;13.530;2023-03-23T13:06:20;0.40;;;0.40;;
22382;SDS011;11359;45.802;13.530;2023-03-23T13:08:54;0.50;;;0.50;;
22382;SDS011;11359;45.802;13.530;2023-03-23T13:11:33;0.50;;;0.40;;
22382;SDS011;11359;45.802;13.530;2023-03-23T13:22:18;0.40;;;0.40;;
22382;SDS011;11359;45.802;13.530;2023-03-23T13:24:56;0.65;;;0.50;;
22382;SDS011;11359;45.802;13.530;2023-03-23T13:27:26;1.20;;;0.70;;
22382;SDS011;11359;45.802;13.530;2023-03-23T13:29:55;1.05;;;0.80;;
22382;SDS011;11359;45.802;13.530;2023-03-23T13:32:28;0.50;;;0.50;;
22382;SDS011;11359;45.802;13.530;2023-03-23T13:35:11;0.70;;;0.60;;
22382;SDS011;11359;45.802;13.530;2023-03-23T13:37:46;1.13;;;0.90;;
22382;SDS011;11359;45.802;13.530;2023-03-23T13:40:28;1.48;;;1.15;;
22382;SDS011;11359;45.802;13.530;2023-03-23T13:42:57;2.33;;;1.40;;
22382;SDS011;11359;45.802;13.530;2023-03-23T13:50:44;1.70;;;1.10;;
22382;SDS011;11359;45.802;13.530;2023-03-23T13:56:13;1.50;;;0.88;;
22382;SDS011;11359;45.802;13.530;2023-03-23T13:58:47;1.20;;;0.70;;
22382;SDS011;11359;45.802;13.530;2023-03-23T14:01:30;0.77;;;0.55;;
22382;SDS011;11359;45.802;13.530;2023-03-23T14:04:03;0.80;;;0.70;;
22382;SDS011;11359;45.802;13.530;2023-03-23T14:06:34;0.77;;;0.70;;
22382;SDS011;11359;45.802;13.530;2023-03-23T14:09:06;0.70;;;0.70;;
22382;SDS011;11359;45.802;13.530;2023-03-23T14:11:46;0.75;;;0.50;;
22382;SDS011;11359;45.802;13.530;2023-03-23T14:14:23;0.90;;;0.77;;
22382;SDS011;11359;45.802;13.530;2023-03-23T14:17:05;0.60;;;0.50;;
22382;SDS011;11359;45.802;13.530;2023-03-23T14:19:38;0.70;;;0.52;;
22382;SDS011;11359;45.802;13.530;2023-03-23T14:22:23;0.88;;;0.70;;
22382;SDS011;11359;45.802;13.530;2023-03-23T14:24:49;0.65;;;0.60;;
22382;SDS011;11359;45.802;13.530;2023-03-23T14:27:26;0.75;;;0.57;;
22382;SDS011;11359;45.802;13.530;2023-03-23T14:29:59;0.47;;;0.47;;
22382;SDS011;11359;45.802;13.530;2023-03-23T14:32:30;1.15;;;0.70;;
22382;SDS011;11359;45.802;13.530;2023-03-23T14:34:57;0.70;;;0.68;;
22382;SDS011;11359;45.802;13.530;2023-03-23T14:37:25;1.00;;;0.70;;
22382;SDS011;11359;45.802;13.530;2023-03-23T14:39:52;0.68;;;0.60;;
22382;SDS011;11359;45.802;13.530;2023-03-23T14:42:30;0.88;;;0.60;;
22382;SDS011;11359;45.802;13.530;2023-03-23T14:45:01;0.50;;;0.50;;
22382;SDS011;11359;45.802;13.530;2023-03-23T14:47:34;0.65;;;0.57;;
22382;SDS011;11359;45.802;13.530;2023-03-23T14:50:24;0.70;;;0.70;;
22382;SDS011;11359;45.802;13.530;2023-03-23T14:55:53;0.70;;;0.70;;
22382;SDS011;11359;45.802;13.530;2023-03-23T14:58:21;0.70;;;0.60;;
22382;SDS011;11359;45.802;13.530;2023-03-23T15:01:04;0.75;;;0.57;;
22382;SDS011;11359;45.802;13.530;2023-03-23T15:04:10;0.95;;;0.70;;
22382;SDS011;11359;45.802;13.530;2023-03-23T15:06:29;0.75;;;0.60;;
22382;SDS011;11359;45.802;13.530;2023-03-23T15:08:58;1.48;;;0.80;;
22382;SDS011;11359;45.802;13.530;2023-03-23T15:11:28;0.60;;;0.60;;
22382;SDS011;11359;45.802;13.530;2023-03-23T15:13:56;0.52;;;0.52;;
22382;SDS011;11359;45.802;13.530;2023-03-23T15:16:46;0.50;;;0.50;;
22382;SDS011;11359;45.802;13.530;2023-03-23T15:19:17;0.45;;;0.45;;
22382;SDS011;11359;45.802;13.530;2023-03-23T15:24:26;0.52;;;0.50;;
22382;SDS011;11359;45.802;13.530;2023-03-23T15:27:03;0.77;;;0.52;;
22382;SDS011;11359;45.802;13.530;2023-03-23T15:29:45;0.73;;;0.60;;
22382;SDS011;11359;45.802;13.530;2023-03-23T15:35:09;0.47;;;0.47;;
22382;SDS011;11359;45.802;13.530;2023-03-23T15:37:39;0.57;;;0.50;;
22382;SDS011;11359;45.802;13.530;2023-03-23T15:40:20;0.88;;;0.50;;
22382;SDS011;11359;45.802;13.530;2023-03-23T15:42:47;0.60;;;0.50;;
22382;SDS011;11359;45.802;13.530;2023-03-23T15:45:25;0.80;;;0.57;;
22382;SDS011;11359;45.802;13.530;2023-03-23T15:47:52;0.82;;;0.63;;
22382;SDS011;11359;45.802;13.530;2023-03-23T15:53:12;0.73;;;0.68;;
22382;SDS011;11359;45.802;13.530;2023-03-23T15:55:46;0.70;;;0.70;;
22382;SDS011;11359;45.802;13.530;2023-03-23T15:58:12;0.77;;;0.60;;
22382;SDS011;11359;45.802;13.530;2023-03-23T16:00:39;0.73;;;0.60;;
22382;SDS011;11359;45.802;13.530;2023-03-23T16:03:07;0.60;;;0.60;;
22382;SDS011;11359;45.802;13.530;2023-03-23T16:05:38;0.85;;;0.68;;
22382;SDS011;11359;45.802;13.530;2023-03-23T16:08:04;0.77;;;0.50;;
22382;SDS011;11359;45.802;13.530;2023-03-23T16:10:32;0.43;;;0.43;;
22382;SDS011;11359;45.802;13.530;2023-03-23T16:12:58;0.50;;;0.50;;
22382;SDS011;11359;45.802;13.530;2023-03-23T16:15:24;0.50;;;0.40;;
22382;SDS011;11359;45.802;13.530;2023-03-23T16:17:50;0.50;;;0.50;;
22382;SDS011;11359;45.802;13.530;2023-03-23T16:20:20;0.68;;;0.50;;
22382;SDS011;11359;45.802;13.530;2023-03-23T16:22:47;0.35;;;0.32;;
22382;SDS011;11359;45.802;13.530;2023-03-23T16:25:14;1.25;;;0.40;;
22382;SDS011;11359;45.802;13.530;2023-03-23T16:27:42;0.77;;;0.50;;
22382;SDS011;11359;45.802;13.530;2023-03-23T16:30:15;0.57;;;0.50;;
22382;SDS011;11359;45.802;13.530;2023-03-23T16:32:42;0.38;;;0.38;;
22382;SDS011;11359;45.802;13.530;2023-03-23T16:35:08;0.50;;;0.50;;
22382;SDS011;11359;45.802;13.530;2023-03-23T16:37:35;0.40;;;0.40;;
22382;SDS011;11359;45.802;13.530;2023-03-23T16:40:01;0.75;;;0.30;;
22382;SDS011;11359;45.802;13.530;2023-03-23T16:42:29;0.50;;;0.50;;
22382;SDS011;11359;45.802;13.530;2023-03-23T16:44:54;0.40;;;0.40;;
22382;SDS011;11359;45.802;13.530;2023-03-23T16:47:20;0.80;;;0.60;;
22382;SDS011;11359;45.802;13.530;2023-03-23T16:49:49;0.63;;;0.60;;
22382;SDS011;11359;45.802;13.530;2023-03-23T16:52:18;0.50;;;0.50;;
22382;SDS011;11359;45.802;13.530;2023-03-23T16:54:44;0.50;;;0.40;;
22382;SDS011;11359;45.802;13.530;2023-03-23T16:57:10;0.50;;;0.50;;
22382;SDS011;11359;45.802;13.530;2023-03-23T16:59:36;0.45;;;0.40;;
22382;SDS011;11359;45.802;13.530;2023-03-23T17:02:03;0.60;;;0.60;;
22382;SDS011;11359;45.802;13.530;2023-03-23T17:04:29;1.55;;;1.00;;
22382;SDS011;11359;45.802;13.530;2023-03-23T17:06:56;1.58;;;1.00;;
22382;SDS011;11359;45.802;13.530;2023-03-23T17:09:26;1.23;;;1.13;;
22382;SDS011;11359;45.802;13.530;2023-03-23T17:11:52;1.20;;;1.10;;